Time;durP1;ratioP1;P1;durP2;ratioP2;P2;SDS_P1;SDS_P2;PMS_P1;PMS_P2;Temp;Humidity;BMP_temperature;BMP_pressure;BME280_temperature;BME280_humidity;BME280_pressure;Samples;Min_cycle;Max_cycle;Signal;HPM_P1;HPM_P2
2022/09/05 00:00:22;;;;;;;5.22;2.67;;;;;;;14.49;85.28;96333.80;1724425;83;21085;-78
2022/09/05 00:04:03;;;;;;;4.28;2.42;;;;;;;14.51;85.39;96333.29;1724309;83;21115;-77
2022/09/05 00:06:57;;;;;;;3.17;2.30;;;;;;;14.49;84.53;96332.47;1724137;83;21058;-77
2022/09/05 00:09:56;;;;;;;4.15;2.55;;;;;;;14.53;84.74;96331.52;1724278;83;21155;-77
2022/09/05 00:12:43;;;;;;;6.60;2.67;;;;;;;14.57;84.75;96337.19;1723733;83;21177;-77
2022/09/05 00:16:07;;;;;;;4.55;2.90;;;;;;;14.49;85.01;96333.80;1724284;83;21626;-76
2022/09/05 00:19:24;;;;;;;10.05;2.52;;;;;;;14.51;85.37;96335.95;1724062;83;21627;-77
2022/09/05 00:22:42;;;;;;;2.33;2.12;;;;;;;14.44;85.15;96334.36;1724103;83;21043;-77
2022/09/05 00:26:00;;;;;;;4.37;2.35;;;;;;;14.42;85.10;96337.49;1724087;83;21047;-77
2022/09/05 00:29:09;;;;;;;2.40;2.20;;;;;;;14.46;84.41;96334.75;1724051;83;21057;-77
2022/09/05 00:32:12;;;;;;;3.65;2.30;;;;;;;14.42;84.58;96338.83;1724306;83;21090;-77
2022/09/05 00:35:22;;;;;;;3.67;2.00;;;;;;;14.36;84.98;96337.15;1696885;83;21086;-77
2022/09/05 00:38:18;;;;;;;3.17;2.10;;;;;;;14.35;84.84;96332.77;1724335;83;21062;-77
2022/09/05 00:41:08;;;;;;;4.10;2.35;;;;;;;14.31;84.49;96331.06;1724175;83;21050;-77
2022/09/05 00:43:56;;;;;;;5.35;2.30;;;;;;;14.36;84.99;96333.63;1723950;83;21119;-77
2022/09/05 00:46:46;;;;;;;3.72;2.27;;;;;;;14.41;85.66;96323.36;1724058;83;21047;-78
2022/09/05 00:49:46;;;;;;;2.58;2.37;;;;;;;14.47;85.25;96323.66;1724286;83;21069;-76
2022/09/05 00:52:49;;;;;;;5.62;2.60;;;;;;;14.52;85.49;96326.22;1724042;83;21070;-77
2022/09/05 00:56:00;;;;;;;4.35;2.50;;;;;;;14.61;85.48;96316.27;1723920;83;21054;-76
2022/09/05 00:58:53;;;;;;;4.17;2.33;;;;;;;14.71;85.17;96320.92;1668569;83;21146;-77
2022/09/05 01:02:04;;;;;;;4.85;2.58;;;;;;;14.72;84.33;96321.36;1724332;83;21049;-76
2022/09/05 01:05:01;;;;;;;5.10;2.50;;;;;;;14.73;84.06;96323.09;1724344;83;21073;-77
2022/09/05 01:08:03;;;;;;;8.28;3.05;;;;;;;14.70;84.25;96323.17;1724139;83;21042;-77
2022/09/05 01:11:02;;;;;;;3.52;2.65;;;;;;;14.66;84.04;96321.48;1724050;83;21090;-76
2022/09/05 01:14:21;;;;;;;2.60;2.37;;;;;;;14.68;84.02;96315.69;1724267;83;21102;-76
2022/09/05 01:17:45;;;;;;;5.58;2.05;;;;;;;14.65;84.23;96313.11;1724489;83;21031;-77
2022/09/05 01:21:03;;;;;;;5.70;2.55;;;;;;;14.60;84.41;96310.55;1724145;83;21054;-77
2022/09/05 01:24:09;;;;;;;3.25;2.00;;;;;;;14.71;84.75;96319.13;1673986;83;21591;-76
2022/09/05 01:27:20;;;;;;;3.67;2.72;;;;;;;14.62;83.88;96308.74;1724471;83;21062;-76
2022/09/05 01:30:43;;;;;;;3.20;2.20;;;;;;;14.54;84.54;96308.05;1724054;83;21081;-76
2022/09/05 01:33:57;;;;;;;6.53;2.60;;;;;;;14.52;85.05;96313.81;1724737;83;21573;-76
2022/09/05 01:37:18;;;;;;;4.87;2.42;;;;;;;14.59;85.21;96311.47;1724180;83;21105;-76
2022/09/05 01:40:30;;;;;;;3.25;2.30;;;;;;;14.67;84.98;96313.95;1724441;83;21054;-76
2022/09/05 01:43:36;;;;;;;2.92;2.47;;;;;;;14.65;84.41;96307.34;1724055;83;21077;-77
2022/09/05 01:46:39;;;;;;;5.87;2.87;;;;;;;14.67;84.82;96308.64;1724486;83;21074;-77
2022/09/05 01:49:57;;;;;;;3.98;2.27;;;;;;;14.67;84.82;96308.64;1724509;83;21082;-76
2022/09/05 01:52:59;;;;;;;7.37;2.50;;;;;;;14.64;84.24;96311.34;1724167;83;21607;-76
2022/09/05 01:56:23;;;;;;;5.17;2.80;;;;;;;14.55;84.51;96304.94;1724385;83;21544;-76
2022/09/05 01:59:38;;;;;;;5.80;2.40;;;;;;;14.65;85.19;96314.44;1723845;83;21050;-76
2022/09/05 02:02:53;;;;;;;3.90;2.40;;;;;;;14.76;84.99;96308.86;1724364;83;21095;-76
2022/09/05 02:06:19;;;;;;;3.27;2.20;;;;;;;14.81;84.35;96309.63;1724251;83;21565;-77
2022/09/05 02:09:26;;;;;;;5.80;2.50;;;;;;;14.68;83.62;96300.62;1724415;83;21099;-77
2022/09/05 02:12:32;;;;;;;4.12;3.35;;;;;;;14.51;84.39;96301.42;1724240;83;21150;-77
2022/09/05 02:15:27;;;;;;;7.45;5.90;;;;;;;14.42;84.54;96308.29;1724366;83;21042;-76
2022/09/05 02:18:23;;;;;;;9.43;4.22;;;;;;;14.31;85.28;96299.21;1723930;83;21189;-77
2022/09/05 02:21:19;;;;;;;12.23;3.70;;;;;;;14.39;85.73;96299.94;1699914;83;21038;-76
2022/09/05 02:24:34;;;;;;;9.43;3.70;;;;;;;14.43;85.64;96296.75;1724397;83;21087;-77
2022/09/05 02:27:37;;;;;;;5.12;2.50;;;;;;;14.45;85.38;96292.28;1724366;83;21107;-77
2022/09/05 02:30:26;;;;;;;3.42;2.65;;;;;;;14.43;84.86;96298.94;1724047;83;21647;-77
2022/09/05 02:33:24;;;;;;;4.80;2.55;;;;;;;14.38;85.41;96306.59;1700013;83;21038;-76
2022/09/05 02:36:31;;;;;;;5.30;2.58;;;;;;;14.24;85.44;96294.97;1724137;83;21078;-76
2022/09/05 02:39:46;;;;;;;6.78;2.90;;;;;;;14.24;85.44;96294.97;1690119;83;21130;-76
2022/09/05 02:42:45;;;;;;;6.08;2.50;;;;;;;14.35;85.27;96303.56;1724148;83;21039;-76
2022/09/05 02:46:13;;;;;;;6.30;3.08;;;;;;;14.26;84.80;96307.30;1724263;83;21035;-76
2022/09/05 02:49:04;;;;;;;4.97;2.27;;;;;;;14.24;85.35;96309.57;1724491;83;21540;-77
2022/09/05 02:52:07;;;;;;;5.33;2.40;;;;;;;14.18;84.73;96307.89;1724128;83;21110;-76
2022/09/05 02:54:53;;;;;;;3.98;2.33;;;;;;;14.10;84.44;96307.66;1724680;83;21611;-77
2022/09/05 02:57:52;;;;;;;5.60;2.22;;;;;;;14.10;84.44;96307.66;1724395;83;21075;-76
2022/09/05 03:00:41;;;;;;;8.98;2.37;;;;;;;14.06;84.53;96307.72;1724006;83;21043;-77
2022/09/05 03:03:44;;;;;;;3.37;2.05;;;;;;;14.06;85.05;96310.38;1724414;83;21584;-76
2022/09/05 03:06:41;;;;;;;3.00;2.37;;;;;;;14.05;84.92;96312.59;1724498;83;21027;-76
2022/09/05 03:10:01;;;;;;;3.62;2.12;;;;;;;14.02;85.41;96313.98;1724291;83;21548;-76
2022/09/05 03:13:10;;;;;;;2.10;1.90;;;;;;;14.11;85.48;96313.36;1724322;83;21042;-77
2022/09/05 03:16:03;;;;;;;3.47;2.10;;;;;;;14.13;84.69;96306.25;1723872;83;21051;-76
2022/09/05 03:19:20;;;;;;;4.72;2.10;;;;;;;14.16;84.59;96308.41;1724327;83;21027;-76
2022/09/05 03:22:37;;;;;;;2.85;2.00;;;;;;;14.15;84.84;96315.93;1723985;83;21531;-76
2022/09/05 03:25:49;;;;;;;5.05;2.12;;;;;;;14.12;84.12;96308.50;1724352;83;21055;-76
2022/09/05 03:28:56;;;;;;;3.22;2.25;;;;;;;14.07;84.15;96311.24;1724233;83;21521;-76
2022/09/05 03:32:12;;;;;;;3.67;2.12;;;;;;;13.96;84.17;96313.23;1724583;83;21042;-77
2022/09/05 03:35:32;;;;;;;4.28;2.45;;;;;;;13.84;85.07;96315.23;1724096;83;21548;-76
2022/09/05 03:38:53;;;;;;;9.15;2.40;;;;;;;13.95;85.60;96322.97;1644897;83;21588;-76
2022/09/05 03:42:14;;;;;;;3.90;2.35;;;;;;;14.00;85.05;96317.58;1724383;83;21565;-76
2022/09/05 03:45:41;;;;;;;2.75;1.90;;;;;;;14.03;84.99;96316.18;1724357;83;21109;-76
2022/09/05 03:48:32;;;;;;;4.35;2.05;;;;;;;14.02;84.13;96321.08;1724333;83;21082;-76
2022/09/05 03:52:02;;;;;;;4.55;2.35;;;;;;;13.95;83.92;96320.78;1724010;83;21031;-76
2022/09/05 03:55:02;;;;;;;4.70;2.12;;;;;;;13.86;84.16;96324.50;1724354;83;21153;-76
2022/09/05 03:58:22;;;;;;;3.33;2.30;;;;;;;13.75;84.89;96330.45;1724327;83;21520;-76
2022/09/05 04:01:19;;;;;;;4.50;2.05;;;;;;;13.63;84.25;96327.14;1724196;83;21038;-77
2022/09/05 04:04:40;;;;;;;4.78;1.90;;;;;;;13.62;84.98;96328.48;1724130;83;21540;-77
2022/09/05 04:07:33;;;;;;;5.40;2.35;;;;;;;13.51;85.28;96331.34;1654590;86;21097;-77
2022/09/05 04:10:50;;;;;;;4.15;2.60;;;;;;;13.46;85.02;96330.55;1654600;87;21592;-77
2022/09/05 04:14:02;;;;;;;5.25;1.90;;;;;;;13.50;85.06;96333.55;1702995;84;21067;-77
2022/09/05 04:16:58;;;;;;;3.35;2.10;;;;;;;13.44;84.93;96338.11;1724340;83;21126;-77
2022/09/05 04:19:55;;;;;;;5.55;2.72;;;;;;;13.34;84.94;96338.27;1723325;83;21572;-75
2022/09/05 04:23:23;;;;;;;4.65;2.15;;;;;;;13.33;86.38;96340.93;1716316;84;21054;-76
2022/09/05 04:26:39;;;;;;;4.58;2.30;;;;;;;13.50;86.58;96340.64;1716132;84;21091;-77
2022/09/05 04:29:50;;;;;;;4.60;2.95;;;;;;;13.57;85.61;96339.62;1716212;84;21565;-77
2022/09/05 04:32:56;;;;;;;6.28;2.22;;;;;;;13.65;85.99;96345.66;1715910;84;21598;-77
2022/09/05 04:36:19;;;;;;;3.90;2.40;;;;;;;13.83;85.92;96345.76;1716292;84;21111;-76
2022/09/05 04:39:24;;;;;;;3.42;2.10;;;;;;;13.99;85.91;96340.59;1716206;84;21051;-77
2022/09/05 04:42:25;;;;;;;2.62;2.35;;;;;;;14.10;85.37;96348.33;1716113;84;21046;-76
2022/09/05 04:45:14;;;;;;;6.67;2.30;;;;;;;14.18;85.30;96341.07;1715925;84;21054;-75
2022/09/05 04:48:01;;;;;;;6.80;2.45;;;;;;;14.31;84.47;96346.99;1716475;84;21047;-76
2022/09/05 04:51:07;;;;;;;6.33;2.22;;;;;;;14.38;84.42;96341.11;1716356;84;21548;-77
2022/09/05 04:54:06;;;;;;;4.55;2.80;;;;;;;14.47;84.58;96351.55;1724659;83;21138;-77
2022/09/05 04:57:09;;;;;;;9.88;2.90;;;;;;;14.55;84.29;96351.41;1689797;84;21159;-76
2022/09/05 05:00:14;;;;;;;4.22;2.85;;;;;;;14.64;84.22;96356.50;1716246;84;21031;-77
2022/09/05 05:03:03;;;;;;;4.33;2.95;;;;;;;14.74;84.23;96360.72;1716382;84;21074;-76
2022/09/05 05:05:54;;;;;;;4.62;2.83;;;;;;;14.82;83.47;96365.40;1716396;84;21039;-77
2022/09/05 05:08:50;;;;;;;5.40;2.80;;;;;;;14.87;83.40;96363.97;1716454;84;21046;-76
2022/09/05 05:12:02;;;;;;;6.72;2.98;;;;;;;14.79;83.04;96372.55;1716716;84;21556;-77
2022/09/05 05:15:05;;;;;;;8.60;3.15;;;;;;;14.69;83.24;96374.10;1716068;84;21093;-77
2022/09/05 05:18:05;;;;;;;8.80;3.50;;;;;;;14.76;83.51;96384.12;1716669;84;21148;-77
2022/09/05 05:21:25;;;;;;;6.87;3.72;;;;;;;14.78;83.65;96385.42;1720000;83;21524;-76
2022/09/05 05:24:27;;;;;;;6.28;3.90;;;;;;;14.79;83.82;96377.86;1719931;83;21115;-77
2022/09/05 05:27:21;;;;;;;8.05;3.37;;;;;;;14.74;83.92;96385.06;1720862;83;21121;-76
2022/09/05 05:30:10;;;;;;;7.40;3.72;;;;;;;14.75;84.15;96385.03;1724334;83;21030;-76
2022/09/05 05:32:59;;;;;;;8.18;3.50;;;;;;;14.82;84.31;96392.42;1724525;83;21074;-76
2022/09/05 05:35:48;;;;;;;6.33;3.50;;;;;;;14.96;84.38;96382.34;1724191;83;21508;-77
2022/09/05 05:38:52;;;;;;;5.35;2.92;;;;;;;15.16;84.33;96389.84;1724287;83;21043;-77
2022/09/05 05:41:46;;;;;;;8.50;2.98;;;;;;;15.33;83.71;96393.44;1724457;83;21097;-76
2022/09/05 05:44:35;;;;;;;4.87;2.85;;;;;;;15.52;83.28;96393.83;1724483;83;21103;-76
2022/09/05 05:47:32;;;;;;;4.40;2.60;;;;;;;15.75;83.42;96389.31;1724302;83;21039;-76
2022/09/05 05:51:05;;;;;;;7.47;2.40;;;;;;;16.03;82.88;96392.10;1724358;83;21605;-77
2022/09/05 05:54:08;;;;;;;8.93;2.50;;;;;;;16.20;82.18;96398.27;1724992;83;21006;-77
2022/09/05 05:57:19;;;;;;;7.83;2.52;;;;;;;16.36;81.65;96397.41;1705325;84;21038;-77
2022/09/05 06:00:39;;;;;;;7.35;2.70;;;;;;;16.44;79.76;96378.08;1710977;84;21157;-77
2022/09/05 06:04:14;;;;;;;5.12;2.77;;;;;;;16.55;80.47;96385.74;1710962;84;21066;-76
2022/09/05 06:07:20;;;;;;;5.37;2.62;;;;;;;16.65;80.43;96383.22;1710613;84;21128;-74
2022/09/05 06:11:02;;;;;;;3.70;2.60;;;;;;;16.85;80.26;96389.31;1710512;84;21034;-74
2022/09/05 06:14:34;;;;;;;4.33;2.30;;;;;;;17.08;79.65;96381.49;1694403;85;21050;-76
2022/09/05 06:17:36;;;;;;;4.67;2.87;;;;;;;17.36;79.01;96371.27;1661157;85;21035;-70
2022/09/05 06:20:47;;;;;;;4.20;2.77;;;;;;;17.55;78.03;96381.32;1662544;85;21345;-75
2022/09/05 06:24:08;;;;;;;5.67;3.00;;;;;;;17.56;77.27;96387.05;1710741;84;21062;-80
2022/09/05 06:27:29;;;;;;;4.80;3.00;;;;;;;17.50;76.44;96389.47;1680889;85;21583;-81
2022/09/05 06:30:21;;;;;;;6.45;2.87;;;;;;;17.43;76.31;96395.93;1695660;84;21006;-79
2022/09/05 06:33:41;;;;;;;6.40;2.90;;;;;;;17.51;75.03;96389.44;1708519;84;21038;-80
2022/09/05 06:36:57;;;;;;;5.28;2.30;;;;;;;17.65;74.84;96390.29;1715265;82;21097;-69
2022/09/05 06:40:21;;;;;;;7.40;3.05;;;;;;;17.89;74.99;96383.72;1710118;84;21093;-81
2022/09/05 06:43:44;;;;;;;3.92;2.90;;;;;;;18.11;74.39;96387.38;1709555;84;21203;-78
2022/09/05 06:46:38;;;;;;;3.37;2.50;;;;;;;18.30;72.55;96393.42;1680514;85;21056;-75
2022/09/05 06:49:28;;;;;;;6.83;2.45;;;;;;;18.33;73.44;96394.17;1730252;82;21678;-76
2022/09/05 06:52:52;;;;;;;3.40;2.62;;;;;;;18.32;72.52;96392.88;1739849;82;21069;-76
2022/09/05 06:56:19;;;;;;;8.50;2.62;;;;;;;18.47;73.35;96384.77;1709811;84;21069;-75
2022/09/05 06:59:38;;;;;;;3.98;2.25;;;;;;;18.75;73.41;96385.96;1700803;83;21069;-77
2022/09/05 07:02:44;;;;;;;3.35;1.98;;;;;;;19.08;72.16;96393.17;1708420;84;21137;-72
2022/09/05 07:05:50;;;;;;;5.58;1.90;;;;;;;19.28;70.21;96395.05;1739765;82;22146;-72
2022/09/05 07:09:17;;;;;;;3.05;1.80;;;;;;;19.29;69.47;96392.77;1739011;82;21073;-71
2022/09/05 07:12:26;;;;;;;3.22;2.20;;;;;;;19.38;69.80;96408.47;1710409;84;21034;-77
2022/09/05 07:15:41;;;;;;;2.10;1.90;;;;;;;19.60;66.55;96399.53;1738518;82;21038;-83
2022/09/05 07:19:13;;;;;;;2.85;1.60;;;;;;;19.73;63.12;96402.61;1731336;83;21043;-74
2022/09/05 07:22:20;;;;;;;3.30;1.90;;;;;;;19.73;64.09;96407.52;1730864;83;21113;-79
2022/09/05 07:25:10;;;;;;;6.83;2.00;;;;;;;19.73;61.82;96407.96;1730657;83;21126;-71
2022/09/05 07:28:08;;;;;;;3.10;1.82;;;;;;;19.98;63.83;96406.45;1710233;83;21038;-79
2022/09/05 07:30:58;;;;;;;4.25;1.80;;;;;;;20.21;61.57;96400.99;1732822;83;21149;-74
2022/09/05 07:33:47;;;;;;;4.12;1.80;;;;;;;20.29;60.91;96416.73;1734545;83;21029;-71
2022/09/05 07:36:37;;;;;;;1.60;1.47;;;;;;;20.19;61.46;96410.91;1706093;84;21031;-75
2022/09/05 07:39:27;;;;;;;2.20;2.00;;;;;;;20.12;61.20;96413.44;1737127;83;21105;-75
2022/09/05 07:42:19;;;;;;;4.67;1.75;;;;;;;20.06;61.15;96412.38;1736411;83;21101;-73
2022/09/05 07:45:12;;;;;;;3.25;1.90;;;;;;;20.05;61.41;96414.16;1733605;83;21067;-73
2022/09/05 07:48:13;;;;;;;;;;;;;;;20.21;61.03;96426.45;1733616;83;21116;-70
2022/09/05 07:51:02;;;;;;;3.60;1.57;;;;;;;20.45;60.95;96415.10;1729567;83;20486;-75
2022/09/05 07:53:47;;;;;;;2.42;1.47;;;;;;;20.64;59.95;96413.86;1731223;83;21015;-72
2022/09/05 07:56:44;;;;;;;1.85;1.75;;;;;;;20.61;58.42;96412.63;1709996;83;21066;-70
2022/09/05 07:59:36;;;;;;;2.72;1.90;;;;;;;20.65;59.03;96413.38;1732144;83;21105;-73
2022/09/05 08:02:21;;;;;;;1.90;1.60;;;;;;;20.63;60.10;96414.77;1700728;83;21037;-75
2022/09/05 08:05:08;;;;;;;2.12;1.45;;;;;;;20.55;58.88;96416.94;1701482;84;21141;-75
2022/09/05 08:07:57;;;;;;;2.02;1.77;;;;;;;20.48;59.05;96423.48;1702091;84;21049;-74
2022/09/05 08:10:56;;;;;;;2.10;1.80;;;;;;;20.44;59.10;96423.23;1697307;84;21187;-76
2022/09/05 08:14:01;;;;;;;6.37;2.20;;;;;;;20.36;59.33;96424.91;1718882;83;21057;-73
2022/09/05 08:16:46;;;;;;;5.22;1.80;;;;;;;20.35;60.48;96416.45;1719426;83;21130;-75
2022/09/05 08:19:55;;;;;;;4.33;2.08;;;;;;;20.37;60.89;96417.73;1730884;83;21045;-75
2022/09/05 08:23:15;;;;;;;4.45;1.60;;;;;;;20.32;60.02;96415.25;1720945;82;21086;-75
2022/09/05 08:26:22;;;;;;;2.90;1.95;;;;;;;20.22;60.46;96413.92;1690878;85;21558;-72
2022/09/05 08:29:31;;;;;;;2.30;1.57;;;;;;;20.38;60.20;96413.63;1709523;84;21513;-70
2022/09/05 08:32:43;;;;;;;1.60;1.50;;;;;;;20.61;60.34;96403.24;1705834;84;21096;-72
2022/09/05 08:35:39;;;;;;;2.12;1.70;;;;;;;20.83;58.88;96405.82;1724413;83;21034;-72
2022/09/05 08:38:27;;;;;;;2.47;1.45;;;;;;;20.87;57.42;96407.43;1724625;83;21030;-72
2022/09/05 08:41:37;;;;;;;3.08;1.90;;;;;;;20.93;58.08;96399.56;1724788;83;21085;-72
2022/09/05 08:45:14;;;;;;;3.33;2.15;;;;;;;21.08;56.39;96398.84;1698682;84;21062;-72
2022/09/05 08:48:26;;;;;;;3.65;1.85;;;;;;;21.31;57.22;96396.39;1697030;84;21061;-72
2022/09/05 08:51:16;;;;;;;4.00;1.77;;;;;;;21.51;55.97;96391.91;1698170;84;21090;-72
2022/09/05 08:54:33;;;;;;;4.80;2.08;;;;;;;21.69;56.04;96388.30;1724764;83;21087;-72
2022/09/05 08:57:46;;;;;;;2.25;1.70;;;;;;;21.91;56.43;96385.41;1699032;84;21047;-72
2022/09/05 09:00:39;;;;;;;2.95;1.65;;;;;;;22.21;54.60;96384.81;1699561;84;21117;-72
2022/09/05 09:03:50;;;;;;;2.85;1.95;;;;;;;22.44;55.11;96382.25;1699385;84;21043;-72
2022/09/05 09:07:05;;;;;;;2.87;1.80;;;;;;;22.79;54.41;96381.70;1699391;84;21545;-72
2022/09/05 09:09:58;;;;;;;5.22;1.90;;;;;;;23.05;52.36;96375.38;1724763;83;21030;-72
2022/09/05 09:13:04;;;;;;;;;;;;;;;23.26;51.17;96381.41;1727591;83;21551;-72
2022/09/05 09:15:57;;;;;;;2.02;1.62;;;;;;;23.31;51.08;96382.02;1701731;83;20097;-72
2022/09/05 09:18:54;;;;;;;2.35;1.75;;;;;;;23.12;51.46;96382.16;1707385;84;21633;-72
2022/09/05 09:22:11;;;;;;;2.12;1.90;;;;;;;22.76;51.92;96381.88;1724733;82;21077;-72
2022/09/05 09:25:08;;;;;;;5.20;1.70;;;;;;;22.42;52.20;96378.77;1699456;84;21059;-72
2022/09/05 09:28:10;;;;;;;2.35;2.05;;;;;;;22.11;53.42;96379.01;1699032;84;21673;-72
2022/09/05 09:31:15;;;;;;;3.20;1.95;;;;;;;21.82;54.26;96376.01;1701119;83;21644;-72
2022/09/05 09:34:31;;;;;;;3.75;2.20;;;;;;;21.88;53.87;96381.53;1699138;84;21055;-72
2022/09/05 09:37:58;;;;;;;3.65;2.22;;;;;;;22.20;54.62;96376.33;1725102;83;21624;-72
2022/09/05 09:41:23;;;;;;;2.40;1.80;;;;;;;22.57;54.42;96369.02;1665738;84;21074;-72
2022/09/05 09:44:29;;;;;;;2.12;1.98;;;;;;;22.87;52.81;96366.48;1699320;84;21547;-72
2022/09/05 09:47:22;;;;;;;3.40;1.98;;;;;;;23.16;50.50;96368.05;1699100;84;21089;-72
2022/09/05 09:50:12;;;;;;;1.90;1.80;;;;;;;23.48;51.88;96371.60;1699805;84;21107;-72
2022/09/05 09:53:28;;;;;;;2.05;1.70;;;;;;;23.81;49.80;96363.89;1725179;83;21539;-72
2022/09/05 09:56:31;;;;;;;5.15;2.00;;;;;;;24.02;49.35;96365.33;1699372;84;21090;-72
2022/09/05 09:59:42;;;;;;;2.53;2.00;;;;;;;24.40;48.41;96355.39;1725393;83;21046;-72
2022/09/05 10:03:22;;;;;;;2.75;1.70;;;;;;;24.28;47.76;96366.93;1699186;84;21067;-72
2022/09/05 10:06:53;;;;;;;3.65;2.05;;;;;;;23.96;48.23;96367.92;1725199;83;21114;-72
2022/09/05 10:10:18;;;;;;;2.52;2.30;;;;;;;23.55;48.13;96367.61;1724994;83;21062;-72
2022/09/05 10:13:37;;;;;;;2.40;2.20;;;;;;;23.18;48.86;96371.52;1725082;83;21042;-72
2022/09/05 10:16:42;;;;;;;2.17;1.98;;;;;;;22.93;49.73;96363.47;1725041;83;21021;-73
2022/09/05 10:19:53;;;;;;;4.30;2.40;;;;;;;22.74;49.79;96366.77;1631511;84;21063;-72
2022/09/05 10:22:46;;;;;;;3.72;2.30;;;;;;;22.55;49.96;96365.53;1701112;84;21050;-73
2022/09/05 10:26:04;;;;;;;3.30;2.55;;;;;;;22.51;50.45;96366.67;1733873;83;21042;-72
2022/09/05 10:29:10;;;;;;;2.70;2.37;;;;;;;22.38;50.66;96360.59;1733641;83;21066;-73
2022/09/05 10:32:05;;;;;;;3.08;2.20;;;;;;;22.30;51.40;96372.24;1733566;83;21041;-72
2022/09/05 10:34:59;;;;;;;2.58;2.37;;;;;;;22.40;51.81;96370.80;1733660;83;21076;-72
2022/09/05 10:37:49;;;;;;;3.85;2.17;;;;;;;22.60;51.28;96366.16;1733343;83;21042;-72
2022/09/05 10:40:38;;;;;;;2.77;2.20;;;;;;;22.68;52.79;96374.22;1761949;81;21033;-72
2022/09/05 10:43:29;;;;;;;2.30;2.10;;;;;;;22.95;52.13;96362.02;1733303;83;21164;-73
2022/09/05 10:46:26;;;;;;;3.10;2.08;;;;;;;23.24;52.30;96362.64;1733641;83;21025;-73
2022/09/05 10:49:14;;;;;;;2.92;1.92;;;;;;;23.52;50.97;96364.61;1733612;83;21046;-73
2022/09/05 10:52:11;;;;;;;2.10;2.00;;;;;;;23.53;50.53;96363.64;1733212;83;21038;-73
2022/09/05 10:55:11;;;;;;;3.27;2.10;;;;;;;23.53;49.10;96362.78;1733686;83;21065;-73
2022/09/05 10:58:14;;;;;;;2.67;2.10;;;;;;;23.64;50.10;96355.44;1733478;83;21078;-72
2022/09/05 11:01:26;;;;;;;4.47;1.92;;;;;;;23.56;50.00;96346.44;1733641;83;21026;-72
2022/09/05 11:04:16;;;;;;;3.25;2.20;;;;;;;23.35;49.75;96357.98;1733253;83;21034;-73
2022/09/05 11:07:36;;;;;;;5.65;2.52;;;;;;;23.16;49.03;96355.48;1733866;83;21073;-73
2022/09/05 11:10:38;;;;;;;3.37;2.40;;;;;;;23.15;50.21;96355.55;1733609;83;21045;-73
2022/09/05 11:13:45;;;;;;;3.85;1.98;;;;;;;23.35;51.67;96346.34;1733412;83;21053;-73
2022/09/05 11:16:44;;;;;;;2.30;2.10;;;;;;;24.06;50.43;96344.44;1733401;83;21145;-73
2022/09/05 11:19:42;;;;;;;2.12;1.92;;;;;;;24.73;49.82;96338.96;1733462;83;21064;-72
2022/09/05 11:22:37;;;;;;;2.77;2.00;;;;;;;24.59;48.10;96343.00;1733376;82;21097;-72
2022/09/05 11:25:26;;;;;;;4.10;2.00;;;;;;;24.28;47.13;96338.61;1711960;83;21129;-73
2022/09/05 11:28:19;;;;;;;4.65;2.20;;;;;;;24.36;47.52;96335.81;1732880;83;21037;-73
2022/09/05 11:31:10;;;;;;;2.98;2.10;;;;;;;24.92;47.14;96334.63;1733075;83;21531;-73
2022/09/05 11:34:36;;;;;;;2.47;2.27;;;;;;;25.12;47.17;96331.96;1714217;84;21054;-73
2022/09/05 11:37:49;;;;;;;2.12;2.00;;;;;;;24.90;45.74;96335.69;1733052;83;21081;-73
2022/09/05 11:40:54;;;;;;;1.85;1.75;;;;;;;24.66;46.59;96335.40;1732917;83;21034;-73
2022/09/05 11:44:11;;;;;;;2.52;1.80;;;;;;;25.10;46.55;96332.57;1733040;83;21042;-73
2022/09/05 11:47:35;;;;;;;2.30;1.77;;;;;;;24.83;45.96;96330.66;1714439;84;21034;-73
2022/09/05 11:51:18;;;;;;;3.22;2.10;;;;;;;24.58;46.93;96327.78;1732871;83;21041;-73
2022/09/05 11:54:29;;;;;;;10.05;2.50;;;;;;;24.79;47.62;96321.50;1732742;83;21524;-73
2022/09/05 11:57:41;;;;;;;5.95;2.70;;;;;;;25.75;45.20;96324.27;1732821;83;21037;-73
2022/09/05 12:00:51;;;;;;;2.95;2.30;;;;;;;25.54;44.83;96329.30;1732795;83;21025;-73
2022/09/05 12:04:15;;;;;;;4.47;2.85;;;;;;;25.60;45.83;96323.47;1732941;83;21081;-73
2022/09/05 12:07:34;;;;;;;2.65;2.45;;;;;;;26.43;45.36;96323.23;1733227;83;21026;-73
2022/09/05 12:10:30;;;;;;;2.70;2.50;;;;;;;27.15;44.56;96329.80;1714547;84;21587;-73
2022/09/05 12:13:44;;;;;;;3.98;2.45;;;;;;;27.90;41.60;96330.67;1714543;84;21081;-73
2022/09/05 12:17:00;;;;;;;3.15;2.40;;;;;;;28.13;40.34;96331.11;1733006;83;21046;-73
2022/09/05 12:20:15;;;;;;;6.17;2.90;;;;;;;27.61;41.74;96325.05;1733110;83;21033;-73
2022/09/05 12:23:38;;;;;;;3.37;2.30;;;;;;;27.91;41.29;96324.25;1713312;84;21137;-73
2022/09/05 12:26:59;;;;;;;4.22;2.50;;;;;;;27.78;40.55;96317.01;1694625;85;21055;-73
2022/09/05 12:29:50;;;;;;;3.83;2.40;;;;;;;26.93;41.62;96313.38;1699375;84;21095;-73
2022/09/05 12:32:52;;;;;;;3.50;2.47;;;;;;;26.63;42.87;96315.95;1699342;84;21452;-73
2022/09/05 12:36:08;;;;;;;4.77;2.60;;;;;;;26.87;42.56;96310.63;1725063;83;22073;-74
2022/09/05 12:39:18;;;;;;;3.95;2.50;;;;;;;27.27;41.79;96311.81;1699189;84;21058;-73
2022/09/05 12:42:39;;;;;;;3.25;2.58;;;;;;;27.27;40.79;96309.11;1671143;85;21098;-73
2022/09/05 12:45:40;;;;;;;2.58;2.33;;;;;;;28.00;40.71;96305.92;1699472;84;21063;-73
2022/09/05 12:48:33;;;;;;;2.85;2.50;;;;;;;28.58;39.38;96300.53;1699205;84;21039;-73
2022/09/05 12:51:27;;;;;;;4.03;2.42;;;;;;;28.96;38.87;96299.30;1699150;84;21054;-74
2022/09/05 12:54:35;;;;;;;4.03;2.30;;;;;;;29.59;38.72;96290.08;1684290;84;21106;-74
2022/09/05 12:57:36;;;;;;;3.08;2.20;;;;;;;30.11;37.70;96282.94;1699145;84;21127;-74
2022/09/05 13:00:22;;;;;;;5.30;2.17;;;;;;;29.89;37.00;96279.86;1701047;83;21105;-73
2022/09/05 13:03:16;;;;;;;3.90;2.20;;;;;;;29.12;38.06;96276.20;1724650;83;21102;-74
2022/09/05 13:06:14;;;;;;;3.40;2.20;;;;;;;28.64;39.01;96285.95;1725028;83;21018;-74
2022/09/05 13:09:28;;;;;;;4.37;2.52;;;;;;;28.02;39.91;96282.23;1699405;84;21051;-73
2022/09/05 13:12:28;;;;;;;2.92;2.62;;;;;;;27.29;40.91;96290.00;1699439;84;21174;-74
2022/09/05 13:15:35;;;;;;;3.22;2.62;;;;;;;26.60;42.63;96279.64;1699588;84;21117;-74
2022/09/05 13:18:36;;;;;;;3.12;2.77;;;;;;;26.10;43.52;96285.39;1699243;84;21078;-73
2022/09/05 13:21:23;;;;;;;3.47;2.75;;;;;;;25.48;44.53;96292.26;1699578;84;21059;-74
2022/09/05 13:24:13;;;;;;;5.28;3.20;;;;;;;24.89;45.73;96297.00;1700095;84;21046;-74
2022/09/05 13:27:19;;;;;;;4.53;3.40;;;;;;;24.42;46.84;96302.23;1712732;83;21034;-74
2022/09/05 13:30:12;;;;;;;4.47;3.15;;;;;;;24.00;47.81;96301.20;1733631;83;21038;-73
2022/09/05 13:33:15;;;;;;;3.40;3.10;;;;;;;23.63;49.71;96305.20;1733465;83;21077;-73
2022/09/05 13:36:04;;;;;;;4.90;3.67;;;;;;;23.61;49.55;96304.41;1761702;81;21527;-74
2022/09/05 13:39:15;;;;;;;5.50;3.35;;;;;;;23.40;49.92;96302.52;1733282;83;21132;-73
2022/09/05 13:42:02;;;;;;;4.33;3.12;;;;;;;23.15;50.34;96307.09;1733470;83;21033;-73
2022/09/05 13:44:55;;;;;;;4.45;3.22;;;;;;;22.95;50.75;96305.02;1733470;83;21098;-74
2022/09/05 13:48:26;;;;;;;4.62;3.42;;;;;;;22.87;51.26;96315.35;1733364;83;21066;-74
2022/09/05 13:51:31;;;;;;;6.45;3.40;;;;;;;22.74;52.14;96307.58;1733418;83;21033;-74
2022/09/05 13:54:37;;;;;;;5.33;3.90;;;;;;;22.52;54.33;96297.98;1732516;83;21026;-74
2022/09/05 13:57:43;;;;;;;6.72;3.87;;;;;;;22.39;53.69;96298.27;1733634;83;21037;-73
2022/09/05 14:00:37;;;;;;;5.67;3.90;;;;;;;22.28;53.56;96303.38;1733572;83;21608;-73
2022/09/05 14:03:59;;;;;;;6.10;3.40;;;;;;;22.13;53.77;96303.69;1733343;83;21045;-74
2022/09/05 14:07:08;;;;;;;6.08;3.30;;;;;;;22.03;54.20;96301.95;1733373;83;21569;-75
2022/09/05 14:10:17;;;;;;;8.05;3.70;;;;;;;21.92;56.53;96309.69;1733711;83;21065;-76
2022/09/05 14:13:20;;;;;;;4.28;3.22;;;;;;;21.86;57.28;96310.89;1733863;83;21098;-76
2022/09/05 14:16:09;;;;;;;;;;;;;;;22.21;60.55;96310.89;1736288;83;21081;-76
2022/09/05 14:22:06;;;;;;;8.18;2.70;;;;;;;24.59;52.60;96296.67;1761625;81;21564;-76
2022/09/05 14:24:51;;;;;;;3.50;3.20;;;;;;;25.26;48.22;96300.91;1733574;83;21037;-79
2022/09/05 14:27:43;;;;;;;6.28;2.52;;;;;;;25.94;47.41;96300.47;1732937;83;21891;-81
2022/09/05 14:30:35;;;;;;;2.80;2.60;;;;;;;26.54;44.28;96297.19;1732984;83;21556;-78
2022/09/05 14:33:16;;;;;;;6.60;2.90;;;;;;;26.25;44.20;96298.34;1714719;84;21006;-76
2022/09/05 14:35:53;;;;;;;3.80;2.65;;;;;;;25.61;44.99;96313.06;1733131;83;21010;-70